Time;durP1;ratioP1;P1;durP2;ratioP2;P2;SDS_P1;SDS_P2;PMS_P1;PMS_P2;Temp;Humidity;BMP_temperature;BMP_pressure;BME280_temperature;BME280_humidity;BME280_pressure;Samples;Min_cycle;Max_cycle;Signal;HPM_P1;HPM_P2
2022/06/14 00:01:51;;;;;;;3.07;1.40;;;;;;;15.29;70.43;100373.54;1453165;90;21405;-84
2022/06/14 00:04:17;;;;;;;4.27;0.90;;;;;;;15.26;70.38;100377.90;1448944;90;21428;-84
2022/06/14 00:06:43;;;;;;;2.00;1.37;;;;;;;15.23;70.74;100384.10;1441453;90;22517;-85
2022/06/14 00:09:10;;;;;;;5.10;1.30;;;;;;;15.20;71.03;100382.63;1429923;90;21486;-83
2022/06/14 00:11:40;;;;;;;1.57;1.33;;;;;;;15.18;71.23;100389.13;1435363;90;21465;-83
2022/06/14 00:14:09;;;;;;;2.23;1.30;;;;;;;15.15;71.14;100378.32;1462068;90;21303;-82
2022/06/14 00:16:37;;;;;;;1.53;1.43;;;;;;;15.13;71.13;100388.32;1374278;90;21398;-81
2022/06/14 00:19:05;;;;;;;2.03;1.30;;;;;;;15.10;71.59;100382.87;1446873;90;21405;-81
2022/06/14 00:21:32;;;;;;;2.60;1.60;;;;;;;15.03;71.45;100391.75;1444324;90;21497;-82
2022/06/14 00:23:59;;;;;;;2.07;1.47;;;;;;;15.03;71.10;100387.75;1448810;90;21398;-82
2022/06/14 00:26:26;;;;;;;2.83;2.03;;;;;;;15.02;70.92;100402.91;1441828;90;21485;-80
2022/06/14 00:28:52;;;;;;;2.37;1.50;;;;;;;15.01;70.90;100394.58;1447415;90;21612;-82
2022/06/14 00:31:23;;;;;;;2.53;2.03;;;;;;;14.97;70.39;100393.80;1445234;90;22366;-81
2022/06/14 00:33:49;;;;;;;4.37;1.57;;;;;;;15.00;69.87;100404.09;1437578;90;21568;-81
2022/06/14 00:36:32;;;;;;;4.83;1.73;;;;;;;14.98;69.44;100408.77;1443658;90;22248;-81
2022/06/14 00:39:07;;;;;;;4.83;1.70;;;;;;;14.96;69.46;100405.44;1442608;90;21516;-81
2022/06/14 00:41:44;;;;;;;6.90;1.93;;;;;;;14.93;69.47;100416.45;1445704;90;21545;-81
2022/06/14 00:44:22;;;;;;;5.33;2.10;;;;;;;14.94;69.64;100418.95;1444186;90;21361;-80
2022/06/14 00:47:03;;;;;;;7.93;2.50;;;;;;;14.93;69.90;100413.78;1447738;90;21523;-81
2022/06/14 00:49:37;;;;;;;7.45;1.70;;;;;;;14.96;70.22;100422.76;1440542;90;21486;-81
2022/06/14 00:52:24;;;;;;;7.43;2.20;;;;;;;14.89;70.56;100427.47;1445088;90;21501;-80
2022/06/14 00:55:07;;;;;;;3.00;1.70;;;;;;;14.89;70.47;100424.80;1447205;90;21568;-82
2022/06/14 00:57:39;;;;;;;6.20;1.73;;;;;;;14.85;70.55;100426.17;1441029;90;21479;-81
2022/06/14 01:00:11;;;;;;;2.53;1.60;;;;;;;14.80;71.32;100438.35;1444143;90;22559;-81
2022/06/14 01:02:45;;;;;;;9.93;2.00;;;;;;;14.74;71.73;100440.39;1442597;90;21637;-80
2022/06/14 01:05:17;;;;;;;3.77;1.70;;;;;;;14.76;71.74;100443.21;1442981;90;21569;-80
2022/06/14 01:07:48;;;;;;;3.30;1.53;;;;;;;14.74;71.50;100449.20;1440894;90;21450;-82
2022/06/14 01:10:22;;;;;;;2.40;1.60;;;;;;;14.65;72.29;100447.59;1444835;90;21590;-81
2022/06/14 01:12:53;;;;;;;2.83;1.63;;;;;;;14.63;72.47;100451.74;1435441;90;21383;-81
2022/06/14 01:15:24;;;;;;;4.40;2.63;;;;;;;14.61;71.99;100460.91;1446752;90;22322;-81
2022/06/14 01:18:02;;;;;;;2.97;2.07;;;;;;;14.60;71.53;100453.42;1444960;90;21392;-81
2022/06/14 01:20:29;;;;;;;4.40;1.70;;;;;;;14.62;71.29;100457.27;1455099;90;21444;-80
2022/06/14 01:22:55;;;;;;;2.73;1.70;;;;;;;14.65;70.64;100457.73;1440238;90;21435;-83
2022/06/14 01:25:25;;;;;;;3.20;1.80;;;;;;;14.61;71.08;100458.25;1443638;90;21435;-79
2022/06/14 01:27:53;;;;;;;4.17;2.17;;;;;;;14.62;70.30;100467.41;1441125;90;21383;-81
2022/06/14 01:30:24;;;;;;;5.03;2.37;;;;;;;14.57;70.69;100466.27;1442770;90;21495;-79
2022/06/14 01:33:05;;;;;;;3.57;2.00;;;;;;;14.55;70.49;100459.77;1441288;90;21444;-80
2022/06/14 01:35:37;;;;;;;1.80;1.40;;;;;;;14.45;70.96;100458.62;1439343;90;21586;-80
2022/06/14 01:38:11;;;;;;;3.07;1.43;;;;;;;14.45;71.06;100463.94;1444483;90;21421;-79
2022/06/14 01:41:14;;;;;;;5.00;2.33;;;;;;;14.43;70.88;100467.27;1443490;90;21567;-79
2022/06/14 01:43:54;;;;;;;4.80;1.70;;;;;;;14.41;70.53;100471.95;1440946;90;22218;-79
2022/06/14 01:46:28;;;;;;;3.98;1.90;;;;;;;14.42;70.96;100467.45;1445163;90;22570;-79
2022/06/14 01:52:33;;;;;;;4.03;2.13;;;;;;;14.35;71.69;100469.12;1388936;94;21429;-82
2022/06/14 01:55:23;;;;;;;4.40;1.60;;;;;;;14.31;71.96;100475.30;1394320;94;21607;-82
2022/06/14 01:58:25;;;;;;;4.50;1.67;;;;;;;14.28;72.45;100472.98;1410981;90;21611;-81
2022/06/14 02:01:15;;;;;;;2.53;1.43;;;;;;;14.32;71.49;100482.28;1443111;90;21502;-83
2022/06/14 02:06:57;;;;;;;3.03;1.77;;;;;;;14.31;71.44;100495.27;1444191;90;21486;-82
2022/06/14 02:10:04;;;;;;;7.37;2.00;;;;;;;14.27;72.62;100497.95;1439431;90;21398;-82
2022/06/14 02:12:44;;;;;;;3.83;1.90;;;;;;;14.23;72.65;100499.27;1443226;90;21427;-82
2022/06/14 02:15:28;;;;;;;4.15;1.82;;;;;;;14.19;72.33;100496.63;1439354;90;21464;-81
2022/06/14 02:18:20;;;;;;;5.13;2.30;;;;;;;14.16;72.06;100499.13;1446396;90;21608;-81
2022/06/14 02:20:57;;;;;;;3.37;1.80;;;;;;;14.14;72.21;100499.79;1449360;90;21413;-81
2022/06/14 02:23:25;;;;;;;1.63;1.40;;;;;;;14.10;73.06;100499.81;1439866;90;21538;-81
2022/06/14 02:25:57;;;;;;;4.00;2.20;;;;;;;14.09;73.01;100496.80;1442672;90;22455;-82
2022/06/14 02:28:32;;;;;;;3.50;1.83;;;;;;;14.10;72.31;100502.98;1435856;90;21479;-81
2022/06/14 02:31:22;;;;;;;5.67;2.47;;;;;;;14.09;74.01;100509.28;1440342;90;21360;-81
2022/06/14 02:34:06;;;;;;;3.80;2.40;;;;;;;14.08;72.60;100511.11;1434042;90;22366;-81
2022/06/14 02:36:50;;;;;;;3.53;1.93;;;;;;;14.06;72.80;100525.58;1442970;90;21699;-81
2022/06/14 02:39:24;;;;;;;2.97;1.67;;;;;;;14.05;72.67;100525.27;1442568;90;21479;-81
2022/06/14 02:41:58;;;;;;;2.53;1.70;;;;;;;14.05;73.37;100534.08;1444378;90;21964;-81
2022/06/14 02:44:52;;;;;;;3.17;2.17;;;;;;;14.04;73.56;100527.57;1445578;90;21626;-81
2022/06/14 02:47:46;;;;;;;2.27;1.87;;;;;;;14.02;73.13;100530.42;1448167;90;21465;-82
2022/06/14 02:50:36;;;;;;;3.00;2.00;;;;;;;13.96;73.32;100530.59;1431299;90;21375;-82
2022/06/14 02:53:08;;;;;;;2.65;2.02;;;;;;;13.92;73.28;100533.23;1450098;90;21508;-82
2022/06/14 02:55:43;;;;;;;4.13;1.70;;;;;;;13.89;73.58;100532.73;1444083;90;21398;-82
2022/06/14 02:58:21;;;;;;;6.80;2.57;;;;;;;13.86;73.75;100536.56;1442399;90;22300;-82
2022/06/14 03:01:01;;;;;;;4.60;2.13;;;;;;;13.88;73.49;100541.73;1426518;90;21752;-82
2022/06/14 03:03:38;;;;;;;3.42;1.95;;;;;;;13.94;72.61;100536.56;1443379;90;21494;-81
2022/06/14 03:06:08;;;;;;;4.87;2.00;;;;;;;13.96;71.89;100537.23;1446821;90;22249;-81
2022/06/14 03:08:49;;;;;;;2.20;1.60;;;;;;;14.00;71.84;100536.39;1381005;94;21671;-81
2022/06/14 03:11:32;;;;;;;3.75;1.85;;;;;;;14.00;71.97;100543.88;1370417;95;21532;-81
2022/06/14 03:14:21;;;;;;;2.40;1.90;;;;;;;14.05;71.92;100545.22;1370717;95;21576;-82
2022/06/14 03:17:05;;;;;;;3.23;2.40;;;;;;;14.09;72.26;100558.01;1377529;94;21450;-82
2022/06/14 03:19:46;;;;;;;5.20;3.00;;;;;;;14.12;73.31;100564.83;1377283;95;21494;-82
2022/06/14 03:22:18;;;;;;;;;;;;;;;14.19;72.65;100565.84;1372912;95;21516;-82
2022/06/14 03:25:05;;;;;;;4.03;2.87;;;;;;;14.20;73.65;100572.31;1367179;95;20256;-82
2022/06/14 03:27:39;;;;;;;3.53;2.70;;;;;;;14.24;73.07;100575.46;1381454;93;21591;-82
2022/06/14 03:30:19;;;;;;;3.47;2.30;;;;;;;14.27;73.40;100574.30;1382417;95;21576;-82
2022/06/14 03:33:05;;;;;;;3.85;2.33;;;;;;;14.31;73.28;100571.14;1374801;95;22566;-82
2022/06/14 03:35:42;;;;;;;9.83;2.90;;;;;;;14.40;72.98;100582.11;1381273;95;21568;-81
2022/06/14 03:38:43;;;;;;;5.10;2.90;;;;;;;14.45;73.58;100582.95;1372763;95;21505;-81
2022/06/14 03:41:13;;;;;;;4.58;2.90;;;;;;;14.48;73.09;100588.44;1369674;95;22429;-81
2022/06/14 03:43:40;;;;;;;;;;;;;;;14.52;73.51;100594.59;1384773;95;21487;-82
2022/06/14 03:46:15;;;;;;;4.67;2.87;;;;;;;14.51;73.86;100589.42;1421059;89;20813;-81
2022/06/14 03:48:46;;;;;;;3.53;2.23;;;;;;;14.55;72.86;100600.92;1439346;90;21560;-81
2022/06/14 03:51:45;;;;;;;4.75;2.22;;;;;;;14.60;73.03;100609.23;1443275;90;21576;-81
2022/06/14 03:54:40;;;;;;;9.10;2.70;;;;;;;14.64;73.96;100612.39;1445452;90;21427;-81
2022/06/14 03:57:15;;;;;;;6.90;2.93;;;;;;;14.62;73.70;100614.41;1442049;90;22265;-81
2022/06/14 04:00:16;;;;;;;5.57;2.70;;;;;;;14.69;73.31;100619.38;1437449;90;23351;-81
2022/06/14 04:02:57;;;;;;;3.37;2.53;;;;;;;14.73;72.28;100630.52;1442930;90;21465;-81
2022/06/14 04:05:38;;;;;;;;;;;;;;;14.75;73.01;100629.35;1442738;90;21434;-82
2022/06/14 04:08:34;;;;;;;13.30;2.73;;;;;;;14.80;72.64;100633.67;1444642;90;20399;-81
2022/06/14 04:11:18;;;;;;;8.93;2.67;;;;;;;14.82;72.06;100631.68;1443416;89;21443;-82
2022/06/14 04:14:13;;;;;;;7.10;2.77;;;;;;;14.86;72.36;100634.32;1445098;90;21568;-82
2022/06/14 04:17:19;;;;;;;6.07;2.87;;;;;;;14.94;71.98;100628.15;1447435;90;22373;-82
2022/06/14 04:19:57;;;;;;;10.27;3.43;;;;;;;15.00;71.97;100627.97;1444511;90;21450;-81
2022/06/14 04:22:53;;;;;;;7.80;2.27;;;;;;;15.08;71.20;100631.95;1444026;90;22362;-81
2022/06/14 04:25:31;;;;;;;3.43;2.23;;;;;;;15.14;70.94;100639.25;1443681;90;21449;-83
2022/06/14 04:28:21;;;;;;;7.47;2.73;;;;;;;15.17;70.30;100643.41;1439582;90;22322;-81
2022/06/14 04:31:10;;;;;;;9.13;2.67;;;;;;;15.22;70.13;100647.22;1444488;90;21531;-81
2022/06/14 04:33:48;;;;;;;5.87;2.72;;;;;;;15.31;70.39;100646.18;1439002;90;21747;-81
2022/06/14 04:36:25;;;;;;;4.10;2.50;;;;;;;15.39;69.98;100649.30;1447372;90;21619;-81
2022/06/14 04:38:59;;;;;;;17.50;3.00;;;;;;;15.46;69.33;100652.12;1448061;90;21575;-81
2022/06/14 04:41:46;;;;;;;3.33;2.40;;;;;;;15.56;70.15;100650.05;1441018;90;22484;-81
2022/06/14 04:44:27;;;;;;;7.53;2.10;;;;;;;15.62;68.17;100657.35;1441656;90;22315;-81
2022/06/14 04:46:56;;;;;;;;;;;;;;;15.68;67.26;100656.71;1443270;90;21494;-81
2022/06/14 04:49:28;;;;;;;4.07;1.90;;;;;;;15.75;67.51;100658.16;1447322;90;20549;-81
2022/06/14 04:52:08;;;;;;;4.63;2.60;;;;;;;15.77;66.65;100662.32;1443110;90;21634;-81
2022/06/14 04:54:46;;;;;;;3.90;1.77;;;;;;;15.82;65.73;100663.63;1428008;90;21633;-81
2022/06/14 04:57:23;;;;;;;4.47;1.87;;;;;;;15.91;65.74;100666.56;1438208;90;21427;-84
2022/06/14 05:00:10;;;;;;;4.57;1.73;;;;;;;15.98;64.70;100674.20;1435620;90;21679;-81
2022/06/14 05:03:00;;;;;;;3.50;2.07;;;;;;;16.05;64.74;100671.64;1444681;90;21405;-82
2022/06/14 05:05:32;;;;;;;5.08;2.47;;;;;;;16.14;64.57;100675.91;1435202;90;22475;-81
2022/06/14 05:08:06;;;;;;;8.07;2.67;;;;;;;16.22;64.55;100663.84;1449369;90;21639;-81
2022/06/14 05:10:48;;;;;;;5.23;2.30;;;;;;;16.33;63.95;100675.95;1439816;90;21612;-81
2022/06/14 05:13:32;;;;;;;2.97;1.70;;;;;;;16.41;63.76;100678.56;1438398;90;21479;-81
2022/06/14 05:16:06;;;;;;;3.27;1.97;;;;;;;16.53;63.63;100679.79;1449836;90;21532;-82
2022/06/14 05:18:50;;;;;;;3.83;2.30;;;;;;;16.57;62.11;100681.11;1440709;90;21523;-81
2022/06/14 05:21:27;;;;;;;5.37;2.80;;;;;;;16.60;62.26;100685.23;1449740;90;21450;-81
2022/06/14 05:23:56;;;;;;;5.37;3.33;;;;;;;16.70;62.37;100675.13;1446264;90;22343;-81
2022/06/14 05:26:50;;;;;;;4.93;1.80;;;;;;;16.78;62.17;100687.63;1439133;90;22479;-81
2022/06/14 05:29:31;;;;;;;4.53;2.17;;;;;;;16.82;62.01;100680.38;1451257;90;22521;-82
2022/06/14 05:32:32;;;;;;;5.08;2.25;;;;;;;16.77;61.47;100689.45;1441380;90;21642;-82
2022/06/14 05:35:18;;;;;;;9.37;2.40;;;;;;;16.78;61.00;100687.63;1442911;90;21449;-82
2022/06/14 05:38:01;;;;;;;6.57;1.97;;;;;;;16.96;61.59;100690.78;1432583;90;21405;-84
2022/06/14 05:40:39;;;;;;;9.53;2.57;;;;;;;17.11;61.23;100688.94;1436089;90;21422;-81
2022/06/14 05:43:27;;;;;;;7.23;2.57;;;;;;;17.18;60.50;100694.91;1443726;90;21590;-81
2022/06/14 05:46:02;;;;;;;5.87;2.43;;;;;;;17.30;60.47;100699.59;1436937;90;21612;-83
2022/06/14 05:48:36;;;;;;;6.37;2.73;;;;;;;17.35;60.10;100703.06;1433596;90;21463;-83
2022/06/14 05:51:06;;;;;;;7.00;2.40;;;;;;;17.46;60.33;100699.89;1451344;90;21487;-84
2022/06/14 05:53:46;;;;;;;3.65;2.10;;;;;;;17.55;58.59;100706.83;1443431;90;22380;-83
2022/06/14 05:56:39;;;;;;;10.48;2.37;;;;;;;17.57;58.27;100710.13;1447626;90;21442;-83
2022/06/14 05:59:32;;;;;;;9.13;2.80;;;;;;;17.76;58.06;100719.95;1441225;90;21398;-81
2022/06/14 06:02:06;;;;;;;7.37;2.53;;;;;;;17.78;56.98;100721.94;1441277;90;21918;-81
2022/06/14 06:04:59;;;;;;;6.00;2.70;;;;;;;17.78;57.12;100721.94;1432857;90;21390;-81
2022/06/14 06:07:31;;;;;;;5.70;2.13;;;;;;;17.79;57.10;100727.12;1447408;90;22388;-81
2022/06/14 06:10:21;;;;;;;8.70;2.50;;;;;;;17.95;57.35;100733.27;1440697;90;21494;-81
2022/06/14 06:12:55;;;;;;;11.43;2.67;;;;;;;18.06;56.45;100733.30;1449572;90;21553;-81
2022/06/14 06:15:29;;;;;;;5.30;2.17;;;;;;;18.15;55.91;100741.52;1445510;90;21561;-81
2022/06/14 06:18:04;;;;;;;8.10;2.43;;;;;;;18.17;55.63;100740.84;1438082;90;21472;-84
2022/06/14 06:20:48;;;;;;;4.93;2.27;;;;;;;18.25;55.65;100742.06;1446968;90;21486;-84
2022/06/14 06:23:34;;;;;;;4.67;2.30;;;;;;;18.32;55.80;100742.95;1449131;90;21561;-83
2022/06/14 06:26:01;;;;;;;5.20;3.00;;;;;;;18.44;54.00;100747.28;1445491;90;21485;-83
2022/06/14 06:28:32;;;;;;;7.10;2.80;;;;;;;18.50;54.46;100745.20;1441922;90;21590;-84
2022/06/14 06:31:24;;;;;;;6.77;2.67;;;;;;;18.63;54.76;100739.13;1439806;90;21391;-84
2022/06/14 06:33:54;;;;;;;5.33;2.10;;;;;;;18.65;54.04;100740.59;1445131;90;21457;-81
2022/06/14 06:36:41;;;;;;;5.37;2.55;;;;;;;18.76;54.53;100744.64;1443750;90;21443;-81
2022/06/14 06:39:52;;;;;;;6.03;2.57;;;;;;;18.92;53.84;100753.72;1451535;90;22456;-83
2022/06/14 06:42:48;;;;;;;8.43;2.73;;;;;;;18.90;53.21;100750.43;1453313;90;22133;-82
2022/06/14 06:45:37;;;;;;;5.37;2.37;;;;;;;19.08;53.69;100755.30;1441418;90;21420;-82
2022/06/14 06:48:21;;;;;;;11.15;3.25;;;;;;;19.15;52.07;100749.97;1450759;90;21471;-81
2022/06/14 06:50:55;;;;;;;8.70;2.45;;;;;;;19.24;51.91;100739.40;1438603;90;22501;-81
2022/06/14 06:53:24;;;;;;;5.55;2.40;;;;;;;19.29;51.69;100750.38;1450348;90;21660;-80
2022/06/14 06:56:08;;;;;;;4.92;2.25;;;;;;;19.46;51.67;100742.02;1441684;90;22647;-80
2022/06/14 06:58:51;;;;;;;7.15;2.77;;;;;;;19.55;50.80;100743.51;1439326;90;21623;-81
2022/06/14 07:01:34;;;;;;;5.35;2.40;;;;;;;19.46;49.40;100745.53;1430118;89;21551;-80
2022/06/14 07:05:02;;;;;;;11.53;2.33;;;;;;;19.53;50.06;100748.23;1429093;90;21486;-81
2022/06/14 07:06:58;;;;;;;5.78;2.10;;;;;;;19.39;48.18;100745.50;1426039;91;21561;-81
2022/06/14 07:09:59;;;;;;;13.25;2.47;;;;;;;19.42;49.21;100746.97;1424055;91;22586;-80
2022/06/14 07:12:49;;;;;;;7.60;2.72;;;;;;;19.62;49.83;100749.72;1426801;90;21450;-80
2022/06/14 07:15:30;;;;;;;25.40;3.42;;;;;;;19.87;50.08;100746.57;1427697;91;21546;-80
2022/06/14 07:18:07;;;;;;;5.03;2.37;;;;;;;20.03;49.30;100752.94;1427140;90;21560;-80
2022/06/14 07:21:04;;;;;;;4.62;2.22;;;;;;;20.24;48.85;100751.95;1430123;90;21427;-80
2022/06/14 07:23:35;;;;;;;8.13;2.75;;;;;;;20.24;47.14;100760.02;1424600;91;22885;-80
2022/06/14 07:26:22;;;;;;;4.45;2.33;;;;;;;20.38;48.43;100754.16;1434814;91;23169;-79
2022/06/14 07:29:15;;;;;;;4.75;2.58;;;;;;;20.42;47.25;100751.37;1421444;91;22396;-80
2022/06/14 07:32:11;;;;;;;9.85;2.67;;;;;;;20.50;47.61;100752.00;1426375;91;23622;-80
2022/06/14 07:34:39;;;;;;;6.47;2.60;;;;;;;20.45;47.21;100754.98;1400354;92;21538;-80
2022/06/14 07:37:29;;;;;;;9.70;2.60;;;;;;;20.61;47.84;100762.70;1403892;92;21524;-80
2022/06/14 07:40:23;;;;;;;9.55;3.15;;;;;;;20.14;47.10;100758.22;1398941;93;21539;-80
2022/06/14 07:43:16;;;;;;;8.80;3.60;;;;;;;20.01;47.24;100768.42;1396515;93;21493;-80
2022/06/14 07:45:48;;;;;;;7.08;3.02;;;;;;;20.08;47.69;100763.89;1396111;93;21992;-81
2022/06/14 07:48:47;;;;;;;9.40;3.55;;;;;;;20.27;46.49;100763.13;1401792;93;21745;-80
2022/06/14 07:51:24;;;;;;;12.13;3.37;;;;;;;20.71;47.34;100766.32;1400104;93;21524;-80
2022/06/14 07:54:19;;;;;;;6.40;2.87;;;;;;;20.97;44.86;100756.08;1399014;92;22575;-80
2022/06/14 07:56:53;;;;;;;7.03;2.80;;;;;;;20.77;43.91;100759.29;1412798;92;21494;-81
2022/06/14 07:59:31;;;;;;;7.95;2.33;;;;;;;20.78;44.62;100760.97;1405436;92;21762;-81
2022/06/14 08:02:12;;;;;;;9.25;2.60;;;;;;;20.87;43.23;100768.61;1404852;92;22492;-80
2022/06/14 08:04:58;;;;;;;12.23;3.05;;;;;;;20.82;42.56;100764.36;1406580;92;21700;-80
2022/06/14 08:07:26;;;;;;;9.85;2.30;;;;;;;21.07;43.38;100765.09;1431974;90;21507;-80
2022/06/14 08:10:19;;;;;;;4.70;2.98;;;;;;;21.21;42.52;100772.64;1508112;90;21399;-81
2022/06/14 08:13:09;;;;;;;6.70;2.70;;;;;;;21.32;42.96;100770.13;1418770;91;21340;-79
2022/06/14 08:15:48;;;;;;;6.03;2.80;;;;;;;21.12;40.84;100767.47;1510663;90;22102;-80
2022/06/14 08:18:31;;;;;;;7.10;3.10;;;;;;;21.25;39.99;100768.48;1498070;90;21281;-80
2022/06/14 08:21:09;;;;;;;7.03;2.30;;;;;;;21.46;40.63;100772.28;1508908;90;22345;-80
2022/06/14 08:23:47;;;;;;;8.45;3.77;;;;;;;21.44;41.82;100773.56;1470869;91;21569;-80
2022/06/14 08:26:35;;;;;;;5.28;2.95;;;;;;;21.57;40.51;100767.59;1427614;90;22573;-80
2022/06/14 08:29:34;;;;;;;9.45;2.58;;;;;;;;;;1428954;90;21412;-80
2022/06/14 08:32:34;;;;;;;5.72;2.75;;;;;;;21.39;41.23;100772.83;1426124;91;21407;-81
2022/06/14 08:35:12;;;;;;;6.80;3.30;;;;;;;21.03;40.76;100779.48;1435420;90;21611;-80
2022/06/14 08:37:49;;;;;;;11.65;3.33;;;;;;;21.19;41.58;100772.83;1429440;90;21545;-81
2022/06/14 08:40:44;;;;;;;7.83;3.45;;;;;;;21.37;40.11;100778.94;1435287;90;21616;-81
2022/06/14 08:43:18;;;;;;;9.35;2.62;;;;;;;21.65;39.59;100776.50;1417638;91;21516;-80
2022/06/14 08:46:13;;;;;;;7.72;3.20;;;;;;;21.78;39.39;100773.74;1427591;91;21682;-81
2022/06/14 08:49:15;;;;;;;4.80;2.37;;;;;;;22.04;39.50;100772.30;1432766;91;21397;-81
2022/06/14 08:52:27;;;;;;;5.30;3.00;;;;;;;22.04;39.50;100772.30;1512530;91;21207;-81
2022/06/14 08:55:09;;;;;;;7.08;3.17;;;;;;;22.26;40.42;100769.30;1511872;91;21406;-90
2022/06/14 08:58:11;;;;;;;12.70;3.05;;;;;;;22.41;39.45;100767.16;1510405;91;21322;-92
2022/06/14 09:00:43;;;;;;;6.15;2.15;;;;;;;22.24;36.97;100770.03;1508277;91;21244;-92
2022/06/14 09:03:52;;;;;;;11.68;3.25;;;;;;;22.26;38.03;100762.03;1448125;91;21354;-90
2022/06/14 09:06:55;;;;;;;12.18;3.15;;;;;;;22.50;39.17;100772.59;1464183;90;21464;-90
2022/06/14 09:09:56;;;;;;;9.95;2.80;;;;;;;22.83;38.08;100772.86;1428843;90;21546;-91
2022/06/14 09:12:50;;;;;;;39.63;3.85;;;;;;;23.07;36.61;100771.75;1430840;90;22455;-89
2022/06/14 09:16:02;;;;;;;6.42;2.50;;;;;;;23.29;37.25;100772.99;1434422;90;21523;-90
2022/06/14 09:19:00;;;;;;;5.30;2.62;;;;;;;23.61;37.18;100772.86;1423515;90;22570;-90
2022/06/14 09:21:41;;;;;;;10.40;2.45;;;;;;;23.69;35.92;100771.21;1415523;90;21475;-90
2022/06/14 09:24:32;;;;;;;5.77;2.07;;;;;;;23.59;35.90;100783.05;1450375;90;22444;-89
2022/06/14 09:27:30;;;;;;;4.45;2.15;;;;;;;23.83;35.30;100768.68;1441067;90;21468;-90
2022/06/14 09:30:20;;;;;;;8.53;3.42;;;;;;;23.67;35.92;100774.66;1452206;90;21624;-89
2022/06/14 09:33:10;;;;;;;4.08;2.37;;;;;;;23.63;36.30;100780.22;1445308;90;21676;-89
2022/06/14 09:36:05;;;;;;;;;;;;;;;23.85;35.57;100777.40;1449997;90;21579;-90
2022/06/14 09:39:03;;;;;;;5.55;1.98;;;;;;;23.83;34.62;100768.68;1430116;91;20324;-90
2022/06/14 09:42:04;;;;;;;7.67;2.17;;;;;;;23.77;35.29;100764.19;1427373;91;21420;-91
2022/06/14 09:45:10;;;;;;;7.80;2.40;;;;;;;23.27;35.40;100774.26;1417311;89;21635;-94
2022/06/14 09:48:18;;;;;;;9.73;1.90;;;;;;;22.92;36.06;100786.37;1430439;90;22041;-88
2022/06/14 09:51:06;;;;;;;11.63;2.47;;;;;;;22.69;36.31;100783.45;1416510;91;21429;-94
2022/06/14 09:54:01;;;;;;;5.47;2.22;;;;;;;22.64;36.86;100779.22;1411013;91;22434;-91
2022/06/14 09:56:42;;;;;;;7.55;2.40;;;;;;;22.40;36.82;100787.06;1424426;90;21584;-91
2022/06/14 09:59:26;;;;;;;18.60;4.40;;;;;;;22.35;36.99;100784.70;1429230;91;21421;-88
2022/06/14 10:02:20;;;;;;;6.53;2.98;;;;;;;21.89;36.98;100786.55;1423646;90;21413;-91
2022/06/14 10:05:23;;;;;;;4.40;2.15;;;;;;;21.75;38.06;100784.95;1425569;91;22447;-95
2022/06/14 10:08:33;;;;;;;7.65;2.55;;;;;;;21.44;37.85;100781.11;1426208;90;21679;-90
2022/06/14 10:11:24;;;;;;;;;;;;;;;21.36;38.66;100771.88;1430888;90;21832;-83
2022/06/14 10:14:02;;;;;;;;;;;;;;;21.10;39.36;100776.26;1382307;94;21587;-84
2022/06/14 10:16:55;;;;;;;4.60;2.00;;;;;;;21.17;40.70;100767.64;1411515;90;21044;-83
2022/06/14 10:19:44;;;;;;;4.22;2.15;;;;;;;21.27;39.69;100773.96;1428365;91;21864;-83
2022/06/14 10:22:24;;;;;;;4.40;1.92;;;;;;;21.38;39.75;100767.97;1426638;90;22645;-83
2022/06/14 10:25:10;;;;;;;12.63;3.30;;;;;;;21.52;39.65;100767.42;1428769;91;21643;-84
2022/06/14 10:31:01;;;;;;;6.28;3.10;;;;;;;21.64;38.65;100767.59;1431708;90;21517;-84
2022/06/14 10:33:48;;;;;;;7.10;2.33;;;;;;;21.77;39.67;100765.36;1425044;91;21517;-83
2022/06/14 10:36:49;;;;;;;13.85;3.12;;;;;;;21.70;38.80;100764.58;1423224;91;21936;-84
2022/06/14 10:40:05;;;;;;;8.40;2.65;;;;;;;21.52;39.33;100755.80;1426693;91;21494;-83
2022/06/14 10:43:27;;;;;;;11.10;2.58;;;;;;;21.54;39.05;100767.20;1400335;90;21295;-84
2022/06/14 10:45:57;;;;;;;8.13;3.20;;;;;;;21.63;39.78;100774.00;1355490;90;21295;-85
2022/06/14 10:49:00;;;;;;;9.63;2.52;;;;;;;21.61;39.44;100764.80;1433717;91;21414;-84
2022/06/14 10:52:12;;;;;;;71.97;4.45;;;;;;;21.62;40.00;100751.64;1481965;92;21565;-84
2022/06/14 10:55:11;;;;;;;8.70;2.72;;;;;;;21.76;39.87;100745.69;1485447;90;21383;-84
2022/06/14 10:58:13;;;;;;;26.55;3.98;;;;;;;21.76;39.87;100707.97;1354136;91;22725;-84
2022/06/14 11:01:05;;;;;;;5.53;2.37;;;;;;;22.04;39.70;100753.44;1431116;91;21531;-84
2022/06/14 11:03:54;;;;;;;17.42;3.70;;;;;;;22.29;39.44;100764.83;1419188;90;22381;-84
2022/06/14 11:06:58;;;;;;;10.35;2.70;;;;;;;22.55;38.62;100764.35;1428302;91;21362;-83
2022/06/14 11:09:49;;;;;;;16.70;5.10;;;;;;;22.84;38.61;100765.05;1429171;90;21457;-84
2022/06/14 11:13:10;;;;;;;12.82;2.62;;;;;;;23.06;38.71;100763.36;1424550;91;21457;-84
2022/06/14 11:16:00;;;;;;;4.85;2.50;;;;;;;23.10;37.36;100756.45;1423746;91;21458;-84
2022/06/14 11:19:02;;;;;;;7.67;2.30;;;;;;;23.27;38.19;100756.70;1422470;91;21420;-84
2022/06/14 11:21:48;;;;;;;5.42;2.17;;;;;;;23.50;36.51;100748.77;1416560;90;22036;-84
2022/06/14 11:24:23;;;;;;;6.95;3.27;;;;;;;23.75;37.82;100747.36;1422101;91;21435;-84
2022/06/14 11:27:18;;;;;;;7.28;2.47;;;;;;;23.97;37.36;100737.44;1418050;91;22255;-84
2022/06/14 11:30:25;;;;;;;6.42;2.40;;;;;;;24.17;37.19;100740.69;1423517;90;21443;-84
2022/06/14 11:33:00;;;;;;;6.55;2.02;;;;;;;24.12;35.00;100741.89;1425318;90;21590;-84
2022/06/14 11:35:55;;;;;;;7.12;2.67;;;;;;;24.31;37.04;100739.95;1423633;91;21546;-84
2022/06/14 11:38:44;;;;;;;5.67;2.58;;;;;;;24.34;36.34;100734.10;1420584;90;21672;-84
2022/06/14 11:41:14;;;;;;;2.33;1.60;;;;;;;24.28;35.92;100746.66;1428345;90;22521;-84
2022/06/14 11:44:22;;;;;;;4.42;2.30;;;;;;;24.03;35.38;100736.52;1428879;91;21569;-84
2022/06/14 11:47:21;;;;;;;8.53;2.10;;;;;;;23.99;34.88;100741.53;1433718;91;21441;-84
2022/06/14 11:50:08;;;;;;;8.05;2.37;;;;;;;23.81;35.22;100741.58;1424993;90;21649;-85
2022/06/14 11:53:10;;;;;;;6.97;2.75;;;;;;;24.35;36.29;100741.15;1394206;93;21394;-85
2022/06/14 11:55:48;;;;;;;22.00;3.00;;;;;;;24.90;36.21;100731.44;1393262;93;21571;-84
2022/06/14 11:58:23;;;;;;;11.75;1.87;;;;;;;24.89;35.65;100733.05;1389156;93;21652;-85
2022/06/14 12:01:14;;;;;;;10.68;2.67;;;;;;;24.92;34.71;100733.92;1389452;93;21505;-86
2022/06/14 12:03:48;;;;;;;4.08;2.30;;;;;;;24.87;34.27;100735.15;1384730;94;21401;-87
2022/06/14 12:06:51;;;;;;;6.55;2.30;;;;;;;25.10;34.68;100725.66;1393195;94;21416;-87
2022/06/14 12:09:56;;;;;;;6.00;2.65;;;;;;;25.37;35.02;100727.90;1386847;93;21496;-87
2022/06/14 12:12:40;;;;;;;8.35;2.20;;;;;;;25.54;34.05;100727.45;1381262;94;22499;-87
2022/06/14 12:15:14;;;;;;;5.42;2.15;;;;;;;25.85;32.44;100725.39;1380858;95;21628;-87
2022/06/14 12:17:52;;;;;;;6.75;2.50;;;;;;;25.91;33.50;100727.13;1379610;94;21584;-87
2022/06/14 12:20:25;;;;;;;3.02;2.15;;;;;;;26.10;33.81;100724.52;1381590;95;21527;-86
2022/06/14 12:23:17;;;;;;;4.85;2.20;;;;;;;26.06;32.89;100714.39;1418746;95;21385;-87
2022/06/14 12:29:22;;;;;;;6.60;2.52;;;;;;;26.37;32.58;100718.47;1464583;92;22183;-88
2022/06/14 12:32:14;;;;;;;6.22;2.20;;;;;;;26.34;31.27;100712.18;1436722;92;21333;-88
2022/06/14 12:35:02;;;;;;;5.58;2.77;;;;;;;26.29;32.81;100714.26;1478309;93;21348;-88
2022/06/14 12:38:00;;;;;;;3.47;1.90;;;;;;;26.01;30.52;100715.64;1487865;92;21310;-87
2022/06/14 12:40:39;;;;;;;12.18;2.10;;;;;;;26.29;31.82;100714.80;1459824;92;21355;-86
2022/06/14 12:43:35;;;;;;;4.72;2.02;;;;;;;26.34;30.83;100709.47;1474421;93;21408;-87
2022/06/14 12:46:05;;;;;;;10.10;1.92;;;;;;;26.20;31.73;100710.31;1356168;94;21414;-87
2022/06/14 12:48:42;;;;;;;6.65;1.77;;;;;;;26.40;31.25;100715.27;1345484;92;21532;-86
2022/06/14 12:51:30;;;;;;;3.35;1.80;;;;;;;26.24;29.98;100711.48;1433068;91;21316;-86
2022/06/14 12:54:31;;;;;;;4.37;1.90;;;;;;;26.36;31.62;100705.98;1436579;91;21391;-83
2022/06/14 12:57:16;;;;;;;7.17;2.30;;;;;;;26.79;30.75;100703.17;1423924;91;21412;-84
2022/06/14 12:59:50;;;;;;;6.92;2.08;;;;;;;27.01;30.87;100699.95;1432679;91;21516;-84